Time;durP1;ratioP1;P1;durP2;ratioP2;P2;SDS_P1;SDS_P2;PMS_P1;PMS_P2;Temp;Humidity;BMP_temperature;BMP_pressure;BME280_temperature;BME280_humidity;BME280_pressure;Samples;Min_cycle;Max_cycle;Signal;HPM_P1;HPM_P2
2024/04/15 00:02:21;;;;;;;1.55;0.80;;;;;;;;;;5400035;26;19999;-79
2024/04/15 00:04:47;;;;;;;1.95;1.60;;;;;;;;;;5391141;26;20000;-78
2024/04/15 00:07:12;;;;;;;1.33;1.08;;;;;;;;;;5401881;26;19999;-78
2024/04/15 00:09:38;;;;;;;0.82;0.40;;;;;;;;;;5393741;26;19999;-78
2024/04/15 00:12:04;;;;;;;0.43;0.30;;;;;;;;;;5405548;26;20366;-78
2024/04/15 00:14:30;;;;;;;0.85;0.80;;;;;;;;;;5406988;26;20069;-78
2024/04/15 00:16:55;;;;;;;0.40;0.30;;;;;;;;;;5385776;26;20000;-79
2024/04/15 00:19:25;;;;;;;0.28;0.28;;;;;;;;;;5394091;26;19996;-80
2024/04/15 00:21:50;;;;;;;0.98;0.93;;;;;;;;;;5363270;26;20011;-80
2024/04/15 00:24:16;;;;;;;0.73;0.73;;;;;;;;;;5390605;26;20008;-79
2024/04/15 00:26:42;;;;;;;0.68;0.43;;;;;;;;;;5404690;26;20832;-80
2024/04/15 00:29:08;;;;;;;6.70;2.60;;;;;;;;;;5401418;26;20007;-79
2024/04/15 00:31:33;;;;;;;1.92;0.98;;;;;;;;;;5399125;26;20012;-80
2024/04/15 00:33:59;;;;;;;2.92;1.42;;;;;;;;;;5389249;26;20000;-81
2024/04/15 00:36:24;;;;;;;0.68;0.68;;;;;;;;;;5391595;26;20008;-80
2024/04/15 00:38:50;;;;;;;1.60;1.30;;;;;;;;;;5396652;26;20435;-80
2024/04/15 00:41:16;;;;;;;1.45;1.23;;;;;;;;;;5397735;26;19999;-80
2024/04/15 00:43:41;;;;;;;1.00;0.95;;;;;;;;;;5397494;26;20004;-81
2024/04/15 00:46:08;;;;;;;0.90;0.90;;;;;;;;;;5369945;26;19996;-80
2024/04/15 00:48:34;;;;;;;1.25;1.05;;;;;;;;;;5375216;26;20000;-80
2024/04/15 00:51:00;;;;;;;0.65;0.65;;;;;;;;;;5397783;26;20260;-80
2024/04/15 00:53:26;;;;;;;1.70;0.85;;;;;;;;;;5382298;26;20011;-80
2024/04/15 00:55:53;;;;;;;0.47;0.45;;;;;;;;;;5347554;26;20073;-81
2024/04/15 00:58:19;;;;;;;0.47;0.45;;;;;;;;;;5392992;26;20358;-80
2024/04/15 01:00:45;;;;;;;1.50;1.25;;;;;;;;;;5398867;26;20003;-80
2024/04/15 01:03:12;;;;;;;1.02;0.90;;;;;;;;;;5394267;26;20303;-81
2024/04/15 01:05:38;;;;;;;1.02;0.93;;;;;;;;;;5390734;26;20011;-80
2024/04/15 01:08:04;;;;;;;2.72;1.33;;;;;;;;;;5400743;26;19999;-80
2024/04/15 01:10:30;;;;;;;1.27;1.17;;;;;;;;;;5395576;26;20022;-79
2024/04/15 01:12:56;;;;;;;0.90;0.80;;;;;;;;;;5378940;26;20753;-81
2024/04/15 01:15:21;;;;;;;1.05;0.95;;;;;;;;;;5383059;26;20015;-80
2024/04/15 01:17:47;;;;;;;1.33;1.05;;;;;;;;;;5398220;26;20000;-81
2024/04/15 01:20:13;;;;;;;2.85;1.48;;;;;;;;;;5385889;26;20008;-81
2024/04/15 01:22:43;;;;;;;0.47;0.43;;;;;;;;;;5390460;26;20339;-80
2024/04/15 01:25:08;;;;;;;0.45;0.45;;;;;;;;;;5364600;26;20325;-80
2024/04/15 01:27:34;;;;;;;0.50;0.50;;;;;;;;;;5398866;26;20006;-79
2024/04/15 01:30:00;;;;;;;0.68;0.57;;;;;;;;;;5395742;26;20000;-78
2024/04/15 01:32:25;;;;;;;1.42;1.33;;;;;;;;;;5388724;26;20428;-79
2024/04/15 01:34:51;;;;;;;0.55;0.50;;;;;;;;;;5388024;26;19999;-79
2024/04/15 01:37:17;;;;;;;0.93;0.93;;;;;;;;;;5388287;26;20012;-80
2024/04/15 01:39:42;;;;;;;1.25;1.13;;;;;;;;;;5397205;26;20000;-80
2024/04/15 01:42:08;;;;;;;2.25;1.20;;;;;;;;;;5391823;26;19996;-80
2024/04/15 01:44:34;;;;;;;1.27;1.17;;;;;;;;;;5395447;26;20007;-81
2024/04/15 01:46:59;;;;;;;1.10;1.00;;;;;;;;;;5390461;26;19995;-81
2024/04/15 01:49:25;;;;;;;0.40;0.40;;;;;;;;;;5393291;26;20026;-81
2024/04/15 01:51:51;;;;;;;4.78;1.48;;;;;;;;;;5387292;26;20000;-80
2024/04/15 01:54:16;;;;;;;0.68;0.63;;;;;;;;;;5377033;26;20011;-80
2024/04/15 01:56:43;;;;;;;1.55;0.75;;;;;;;;;;5386567;26;20014;-80
2024/04/15 01:59:09;;;;;;;2.60;1.65;;;;;;;;;;5388242;26;20679;-79
2024/04/15 02:01:35;;;;;;;0.60;0.60;;;;;;;;;;5389522;26;20375;-82
2024/04/15 02:04:01;;;;;;;1.05;0.85;;;;;;;;;;5390289;26;19999;-81
2024/04/15 02:06:26;;;;;;;0.57;0.57;;;;;;;;;;5390949;26;20015;-79
2024/04/15 02:08:52;;;;;;;1.05;0.93;;;;;;;;;;5390752;26;20000;-79
2024/04/15 02:11:18;;;;;;;6.43;1.55;;;;;;;;;;5369001;26;20443;-80
2024/04/15 02:13:43;;;;;;;1.40;0.40;;;;;;;;;;5400545;26;20010;-78
2024/04/15 02:16:09;;;;;;;0.90;0.73;;;;;;;;;;5392015;26;20000;-79
2024/04/15 02:18:35;;;;;;;2.55;1.50;;;;;;;;;;5372402;26;20011;-78
2024/04/15 02:21:00;;;;;;;2.85;1.15;;;;;;;;;;5401185;26;19995;-78
2024/04/15 02:23:26;;;;;;;0.55;0.52;;;;;;;;;;5399831;26;20450;-78
2024/04/15 02:25:52;;;;;;;6.15;1.48;;;;;;;;;;5389491;26;20011;-79
2024/04/15 02:28:17;;;;;;;0.88;0.82;;;;;;;;;;5403021;26;20335;-79
2024/04/15 02:30:43;;;;;;;1.63;1.30;;;;;;;;;;5389153;26;19996;-82
2024/04/15 02:33:09;;;;;;;2.20;1.55;;;;;;;;;;5389036;26;19999;-80
2024/04/15 02:35:35;;;;;;;1.40;1.15;;;;;;;;;;5404861;26;20003;-80
2024/04/15 02:38:00;;;;;;;0.85;0.45;;;;;;;;;;5393827;26;20056;-79
2024/04/15 02:40:26;;;;;;;0.80;0.47;;;;;;;;;;5403647;26;20003;-79
2024/04/15 02:42:52;;;;;;;0.30;0.20;;;;;;;;;;5386636;26;19996;-82
2024/04/15 02:45:17;;;;;;;1.50;1.30;;;;;;;;;;5401268;26;19999;-81
2024/04/15 02:47:43;;;;;;;0.90;0.77;;;;;;;;;;5400403;26;19995;-87
2024/04/15 02:50:09;;;;;;;1.48;0.55;;;;;;;;;;5394717;26;20011;-83
2024/04/15 02:52:34;;;;;;;0.47;0.47;;;;;;;;;;5398404;26;20007;-84
2024/04/15 02:55:00;;;;;;;1.38;1.02;;;;;;;;;;5385415;26;20739;-84
2024/04/15 02:57:27;;;;;;;0.43;0.43;;;;;;;;;;5398326;26;20035;-85
2024/04/15 02:59:53;;;;;;;9.15;1.90;;;;;;;;;;5403786;26;20007;-86
2024/04/15 03:02:18;;;;;;;1.08;0.90;;;;;;;;;;5404292;26;20010;-85
2024/04/15 03:04:44;;;;;;;1.00;0.52;;;;;;;;;;5365869;26;20012;-85
2024/04/15 03:07:10;;;;;;;1.95;1.52;;;;;;;;;;5362658;26;20012;-85
2024/04/15 03:09:36;;;;;;;0.98;0.88;;;;;;;;;;5394108;26;19996;-85
2024/04/15 03:12:01;;;;;;;1.20;0.95;;;;;;;;;;5388869;26;20012;-84
2024/04/15 03:14:27;;;;;;;3.17;1.75;;;;;;;;;;5363969;26;20003;-86
2024/04/15 03:16:52;;;;;;;0.70;0.50;;;;;;;;;;5362390;26;20000;-85
2024/04/15 03:19:18;;;;;;;0.80;0.65;;;;;;;;;;5367359;26;20399;-86
2024/04/15 03:21:44;;;;;;;0.50;0.50;;;;;;;;;;5387563;26;20007;-86
2024/04/15 03:24:10;;;;;;;1.38;1.05;;;;;;;;;;5400063;26;20008;-85
2024/04/15 03:26:35;;;;;;;3.60;2.03;;;;;;;;;;5379664;26;20014;-86
2024/04/15 03:29:01;;;;;;;1.70;1.23;;;;;;;;;;5358175;26;19995;-86
2024/04/15 03:31:28;;;;;;;1.15;1.08;;;;;;;;;;5395552;26;20000;-86
2024/04/15 03:33:54;;;;;;;6.32;1.13;;;;;;;;;;5389127;26;20034;-86
2024/04/15 03:36:20;;;;;;;2.60;2.40;;;;;;;;;;5386799;26;20890;-83
2024/04/15 03:38:46;;;;;;;1.58;1.48;;;;;;;;;;5356450;26;20003;-83
2024/04/15 03:41:11;;;;;;;1.25;1.15;;;;;;;;;;5387143;26;20004;-84
2024/04/15 03:43:37;;;;;;;1.20;1.00;;;;;;;;;;5391295;26;20011;-84
2024/04/15 03:46:03;;;;;;;0.73;0.45;;;;;;;;;;5402375;26;20064;-88
2024/04/15 03:48:29;;;;;;;1.75;1.65;;;;;;;;;;5360683;26;20018;-88
2024/04/15 03:50:54;;;;;;;0.40;0.40;;;;;;;;;;5402497;26;20016;-87
2024/04/15 03:53:20;;;;;;;1.10;0.77;;;;;;;;;;5387684;26;19996;-86
2024/04/15 03:55:56;;;;;;;0.60;0.60;;;;;;;;;;5356340;26;20927;-83
2024/04/15 03:58:22;;;;;;;0.70;0.68;;;;;;;;;;5357851;26;20011;-80
2024/04/15 04:00:50;;;;;;;1.33;1.23;;;;;;;;;;5403859;26;20007;-82
2024/04/15 04:03:16;;;;;;;6.55;5.10;;;;;;;;;;5392551;26;19999;-79
2024/04/15 04:05:42;;;;;;;0.77;0.73;;;;;;;;;;5403129;26;20015;-79
2024/04/15 04:08:07;;;;;;;2.13;1.58;;;;;;;;;;5405293;26;20414;-82
2024/04/15 04:10:33;;;;;;;1.90;1.63;;;;;;;;;;5401472;26;20014;-81
2024/04/15 04:12:59;;;;;;;1.20;0.98;;;;;;;;;;5396284;26;20010;-80
2024/04/15 04:15:25;;;;;;;4.80;1.92;;;;;;;;;;5392462;26;20078;-81
2024/04/15 04:17:51;;;;;;;4.03;2.17;;;;;;;;;;5403931;26;20064;-82
2024/04/15 04:20:16;;;;;;;2.20;1.95;;;;;;;;;;5397481;26;20018;-82
2024/04/15 04:22:42;;;;;;;2.63;2.00;;;;;;;;;;5402718;26;20018;-83
2024/04/15 04:25:08;;;;;;;0.80;0.80;;;;;;;;;;5388719;26;19991;-83
2024/04/15 04:27:34;;;;;;;0.55;0.50;;;;;;;;;;5400058;26;20067;-85
2024/04/15 04:30:00;;;;;;;0.95;0.88;;;;;;;;;;5389444;26;20459;-86
2024/04/15 04:32:26;;;;;;;2.42;2.20;;;;;;;;;;5401168;26;20004;-87
2024/04/15 04:34:51;;;;;;;2.08;1.60;;;;;;;;;;5396656;26;19992;-88
2024/04/15 04:37:17;;;;;;;1.65;1.33;;;;;;;;;;5379999;26;20816;-87
2024/04/15 04:39:43;;;;;;;3.08;2.17;;;;;;;;;;5402638;26;20000;-86
2024/04/15 04:42:09;;;;;;;2.00;1.80;;;;;;;;;;5401351;26;19995;-87
2024/04/15 04:44:34;;;;;;;2.17;1.45;;;;;;;;;;5409084;26;20010;-85
2024/04/15 04:47:01;;;;;;;1.38;0.98;;;;;;;;;;5369367;26;20407;-82
2024/04/15 04:49:27;;;;;;;3.55;1.80;;;;;;;;;;5360647;26;20011;-87
2024/04/15 04:51:53;;;;;;;2.05;1.85;;;;;;;;;;5390271;26;20004;-86
2024/04/15 04:54:18;;;;;;;2.00;1.10;;;;;;;;;;5395786;26;20006;-87
2024/04/15 04:56:44;;;;;;;1.95;1.75;;;;;;;;;;5364321;26;20015;-89
2024/04/15 04:59:10;;;;;;;0.50;0.50;;;;;;;;;;5364924;26;20011;-84
2024/04/15 05:01:36;;;;;;;1.67;1.55;;;;;;;;;;5378250;26;20018;-83
2024/04/15 05:04:02;;;;;;;1.48;1.23;;;;;;;;;;5385923;26;20076;-83
2024/04/15 05:06:28;;;;;;;2.00;1.83;;;;;;;;;;5392753;26;20839;-86
2024/04/15 05:08:54;;;;;;;1.92;1.50;;;;;;;;;;5389556;26;20439;-89
2024/04/15 05:11:19;;;;;;;1.05;0.90;;;;;;;;;;5370567;26;20085;-82
2024/04/15 05:13:45;;;;;;;1.17;1.08;;;;;;;;;;5394113;26;19996;-82
2024/04/15 05:16:12;;;;;;;5.85;2.30;;;;;;;;;;5401142;26;19995;-82
2024/04/15 05:18:38;;;;;;;0.80;0.80;;;;;;;;;;5393388;26;20023;-81
2024/04/15 05:21:04;;;;;;;0.80;0.75;;;;;;;;;;5361788;26;19999;-81
2024/04/15 05:23:31;;;;;;;1.95;1.85;;;;;;;;;;5388801;26;20000;-82
2024/04/15 05:26:00;;;;;;;1.48;1.38;;;;;;;;;;5386495;26;20008;-82
2024/04/15 05:28:26;;;;;;;1.15;1.05;;;;;;;;;;5391322;26;20032;-81
2024/04/15 05:30:54;;;;;;;1.45;1.15;;;;;;;;;;5361389;26;20335;-82
2024/04/15 05:33:20;;;;;;;1.40;1.00;;;;;;;;;;5400296;26;20514;-82
2024/04/15 05:35:45;;;;;;;1.00;0.90;;;;;;;;;;5359832;26;20087;-83
2024/04/15 05:38:11;;;;;;;3.03;2.33;;;;;;;;;;5397337;26;19996;-83
2024/04/15 05:40:37;;;;;;;0.68;0.68;;;;;;;;;;5385045;26;20039;-81
2024/04/15 05:43:15;;;;;;;0.57;0.57;;;;;;;;;;5358511;26;20106;-81
2024/04/15 05:45:43;;;;;;;1.27;0.80;;;;;;;;;;5390916;26;19996;-82
2024/04/15 05:48:09;;;;;;;1.80;1.27;;;;;;;;;;5376953;26;20771;-85
2024/04/15 05:50:35;;;;;;;0.68;0.63;;;;;;;;;;5367197;26;19999;-83
2024/04/15 05:53:01;;;;;;;2.78;1.70;;;;;;;;;;5394951;26;19995;-84
2024/04/15 05:55:27;;;;;;;4.90;1.58;;;;;;;;;;5395479;26;19996;-83
2024/04/15 05:57:52;;;;;;;0.73;0.73;;;;;;;;;;5375918;26;20010;-83
2024/04/15 06:00:19;;;;;;;0.93;0.85;;;;;;;;;;5403290;26;20011;-84
2024/04/15 06:02:45;;;;;;;1.02;0.93;;;;;;;;;;5402758;26;20021;-88
2024/04/15 06:05:12;;;;;;;1.65;1.15;;;;;;;;;;5355291;26;19996;-91
2024/04/15 06:07:38;;;;;;;0.68;0.68;;;;;;;;;;5349120;26;20497;-85
2024/04/15 06:10:03;;;;;;;1.55;1.45;;;;;;;;;;5357141;26;20027;-81
2024/04/15 06:12:29;;;;;;;18.15;1.17;;;;;;;;;;5386061;26;19995;-81
2024/04/15 06:14:55;;;;;;;3.78;2.00;;;;;;;;;;5378344;26;20569;-79
2024/04/15 06:17:22;;;;;;;1.23;0.47;;;;;;;;;;5404385;26;20014;-81
2024/04/15 06:19:48;;;;;;;2.15;1.58;;;;;;;;;;5383542;26;20070;-79
2024/04/15 06:22:13;;;;;;;1.13;1.00;;;;;;;;;;5395075;26;20491;-79
2024/04/15 06:24:39;;;;;;;1.35;1.25;;;;;;;;;;5387107;26;20035;-79
2024/04/15 06:27:05;;;;;;;3.17;2.90;;;;;;;;;;5390439;26;20004;-80
2024/04/15 06:29:31;;;;;;;0.75;0.75;;;;;;;;;;5397911;26;20000;-76
2024/04/15 06:31:56;;;;;;;1.38;1.13;;;;;;;;;;5400710;26;19996;-79
2024/04/15 06:34:24;;;;;;;0.80;0.77;;;;;;;;;;5376067;26;20096;-76
2024/04/15 06:36:52;;;;;;;0.30;0.30;;;;;;;;;;5377376;26;19997;-78
2024/04/15 06:39:17;;;;;;;1.27;0.95;;;;;;;;;;5384665;26;20000;-79
2024/04/15 06:41:43;;;;;;;0.80;0.73;;;;;;;;;;5349009;26;20015;-79
2024/04/15 06:44:10;;;;;;;0.50;0.50;;;;;;;;;;5389143;26;20435;-81
2024/04/15 06:46:35;;;;;;;0.57;0.57;;;;;;;;;;5406098;26;20007;-80
2024/04/15 06:49:01;;;;;;;1.00;0.98;;;;;;;;;;5375611;26;20097;-81
2024/04/15 06:51:27;;;;;;;1.83;1.70;;;;;;;;;;5364763;26;20622;-81
2024/04/15 06:53:53;;;;;;;1.67;1.05;;;;;;;;;;5398058;26;20008;-81
2024/04/15 06:56:18;;;;;;;1.20;1.10;;;;;;;;;;5398081;26;20351;-81
2024/04/15 06:58:44;;;;;;;1.55;0.65;;;;;;;;;;5397843;26;19995;-82
2024/04/15 07:01:10;;;;;;;1.40;1.02;;;;;;;;;;5381135;26;19999;-79
2024/04/15 07:03:36;;;;;;;0.68;0.68;;;;;;;;;;5406233;26;20007;-79
2024/04/15 07:06:01;;;;;;;1.58;0.95;;;;;;;;;;5404585;26;20006;-78
2024/04/15 07:08:27;;;;;;;0.30;0.30;;;;;;;;;;5345448;26;20078;-78
2024/04/15 07:10:53;;;;;;;0.68;0.68;;;;;;;;;;5401277;26;20007;-77
2024/04/15 07:13:19;;;;;;;1.40;1.25;;;;;;;;;;5384900;26;20630;-78
2024/04/15 07:15:44;;;;;;;1.48;1.38;;;;;;;;;;5386215;26;20007;-77
2024/04/15 07:18:11;;;;;;;0.70;0.70;;;;;;;;;;5365939;26;20158;-79
2024/04/15 07:20:36;;;;;;;1.48;1.38;;;;;;;;;;5387234;26;20093;-80
2024/04/15 07:23:03;;;;;;;1.67;0.77;;;;;;;;;;5404980;26;20003;-79
2024/04/15 07:25:28;;;;;;;0.77;0.57;;;;;;;;;;5389902;26;20014;-79
2024/04/15 07:27:54;;;;;;;0.77;0.77;;;;;;;;;;5379391;26;20309;-79
2024/04/15 07:30:20;;;;;;;0.50;0.50;;;;;;;;;;5396735;26;20036;-79
2024/04/15 07:32:45;;;;;;;4.03;1.42;;;;;;;;;;5392890;26;20070;-80
2024/04/15 07:35:11;;;;;;;0.50;0.47;;;;;;;;;;5400867;26;20010;-82
2024/04/15 07:37:37;;;;;;;1.75;1.42;;;;;;;;;;5364801;26;20436;-83
2024/04/15 07:40:04;;;;;;;2.03;1.55;;;;;;;;;;5390459;26;20007;-80
2024/04/15 07:42:30;;;;;;;0.60;0.57;;;;;;;;;;5377907;26;20354;-84
2024/04/15 07:44:56;;;;;;;1.60;0.98;;;;;;;;;;5369252;26;20030;-81
2024/04/15 07:47:22;;;;;;;2.10;1.08;;;;;;;;;;5389343;26;20004;-84
2024/04/15 07:49:47;;;;;;;1.00;0.95;;;;;;;;;;5398993;26;20443;-80
2024/04/15 07:52:13;;;;;;;2.38;0.95;;;;;;;;;;5391567;26;20014;-87
2024/04/15 07:54:39;;;;;;;1.67;1.50;;;;;;;;;;5396620;26;20272;-80
2024/04/15 07:57:07;;;;;;;0.65;0.55;;;;;;;;;;5362576;26;20015;-79
2024/04/15 07:59:33;;;;;;;1.13;0.98;;;;;;;;;;5399803;26;20027;-81
2024/04/15 08:01:58;;;;;;;0.50;0.43;;;;;;;;;;5398580;26;20697;-83
2024/04/15 08:04:24;;;;;;;0.75;0.75;;;;;;;;;;5400248;26;20003;-86
2024/04/15 08:06:50;;;;;;;0.98;0.80;;;;;;;;;;5365640;26;20000;-89
2024/04/15 08:09:15;;;;;;;0.80;0.80;;;;;;;;;;5403902;26;20281;-85
2024/04/15 08:11:41;;;;;;;0.55;0.52;;;;;;;;;;5371290;26;20095;-87
2024/04/15 08:14:07;;;;;;;1.10;1.00;;;;;;;;;;5401037;26;20006;-85
2024/04/15 08:16:33;;;;;;;1.33;1.23;;;;;;;;;;5393029;26;20612;-86
2024/04/15 08:18:58;;;;;;;1.23;0.90;;;;;;;;;;5395860;26;20129;-85
2024/04/15 08:21:24;;;;;;;0.95;0.75;;;;;;;;;;5394991;26;20351;-85
2024/04/15 08:23:49;;;;;;;1.33;1.23;;;;;;;;;;5403765;26;20007;-79
2024/04/15 08:26:15;;;;;;;1.13;0.85;;;;;;;;;;5404432;26;19995;-81
2024/04/15 08:28:41;;;;;;;0.57;0.55;;;;;;;;;;5373748;26;20097;-77
2024/04/15 08:31:07;;;;;;;1.05;0.82;;;;;;;;;;5391104;26;20007;-79
2024/04/15 08:33:32;;;;;;;4.07;0.68;;;;;;;;;;5391286;26;20042;-79
2024/04/15 08:35:58;;;;;;;0.30;0.30;;;;;;;;;;5363954;26;20455;-85
2024/04/15 08:38:24;;;;;;;2.10;1.90;;;;;;;;;;5403958;26;20016;-86
2024/04/15 08:40:57;;;;;;;3.40;2.00;;;;;;;;;;5387380;26;20005;-85
2024/04/15 08:43:24;;;;;;;0.40;0.35;;;;;;;;;;5405927;26;20704;-85
2024/04/15 08:45:52;;;;;;;1.20;1.05;;;;;;;;;;5375294;26;19995;-87
2024/04/15 08:48:21;;;;;;;1.90;1.05;;;;;;;;;;5406275;26;20071;-86
2024/04/15 08:50:47;;;;;;;0.90;0.85;;;;;;;;;;5406424;26;20332;-89
2024/04/15 08:53:12;;;;;;;3.13;2.38;;;;;;;;;;5410036;26;20008;-86
2024/04/15 08:55:38;;;;;;;2.47;1.67;;;;;;;;;;5401873;26;19999;-85
2024/04/15 08:58:04;;;;;;;2.05;1.92;;;;;;;;;;5400073;26;19995;-85
2024/04/15 09:00:30;;;;;;;2.72;2.20;;;;;;;;;;5409539;26;19995;-84
2024/04/15 09:02:57;;;;;;;0.85;0.75;;;;;;;;;;5374572;26;20017;-86
2024/04/15 09:05:23;;;;;;;0.32;0.32;;;;;;;;;;5406251;26;20019;-85
2024/04/15 09:07:51;;;;;;;0.68;0.68;;;;;;;;;;5387941;26;20069;-87
2024/04/15 09:10:17;;;;;;;1.80;1.70;;;;;;;;;;5408221;26;20022;-84
2024/04/15 09:12:43;;;;;;;0.65;0.63;;;;;;;;;;5401266;26;19995;-85
2024/04/15 09:15:10;;;;;;;0.30;0.30;;;;;;;;;;5420382;26;19996;-85
2024/04/15 09:17:36;;;;;;;3.70;1.15;;;;;;;;;;5376611;26;20010;-86
2024/04/15 09:20:02;;;;;;;0.50;0.40;;;;;;;;;;5395171;26;20011;-87
2024/04/15 09:22:31;;;;;;;1.38;1.27;;;;;;;;;;5397703;26;20068;-85
2024/04/15 09:24:57;;;;;;;1.33;1.23;;;;;;;;;;5386925;26;20008;-85
2024/04/15 09:27:24;;;;;;;0.77;0.75;;;;;;;;;;5404380;26;19992;-85
2024/04/15 09:29:52;;;;;;;0.95;0.90;;;;;;;;;;5392482;26;20013;-84
2024/04/15 09:32:18;;;;;;;1.13;1.00;;;;;;;;;;5397102;26;20057;-84
2024/04/15 09:34:44;;;;;;;0.75;0.75;;;;;;;;;;5378115;26;20492;-86
2024/04/15 09:37:11;;;;;;;3.50;1.88;;;;;;;;;;5394161;26;20004;-85
2024/04/15 09:39:37;;;;;;;1.25;1.15;;;;;;;;;;5395363;26;20085;-86
2024/04/15 09:42:05;;;;;;;1.63;1.42;;;;;;;;;;5406037;26;20003;-85
2024/04/15 09:44:32;;;;;;;1.08;1.02;;;;;;;;;;5399456;26;20012;-85
2024/04/15 09:46:58;;;;;;;4.47;1.75;;;;;;;;;;5358265;26;20050;-86
2024/04/15 09:49:23;;;;;;;2.88;1.95;;;;;;;;;;5403304;26;19995;-85
2024/04/15 09:51:51;;;;;;;1.10;0.73;;;;;;;;;;5378391;26;20875;-84
2024/04/15 09:54:22;;;;;;;0.25;0.25;;;;;;;;;;5410495;26;20057;-87
2024/04/15 09:56:48;;;;;;;1.08;0.98;;;;;;;;;;5383050;26;20741;-86
2024/04/15 09:59:15;;;;;;;0.75;0.63;;;;;;;;;;5372241;26;20280;-83
2024/04/15 10:01:42;;;;;;;0.40;0.40;;;;;;;;;;5410727;26;20007;-84
2024/04/15 10:04:15;;;;;;;0.88;0.85;;;;;;;;;;5409521;26;19996;-84
2024/04/15 10:06:48;;;;;;;1.52;0.82;;;;;;;;;;5387217;26;20839;-84
2024/04/15 10:09:17;;;;;;;0.80;0.75;;;;;;;;;;5367070;26;20039;-84
2024/04/15 10:11:43;;;;;;;0.45;0.35;;;;;;;;;;5386845;26;19996;-85
2024/04/15 10:14:10;;;;;;;1.77;1.20;;;;;;;;;;5394060;26;19995;-83
2024/04/15 10:16:36;;;;;;;0.28;0.28;;;;;;;;;;5407541;26;20035;-85
2024/04/15 10:19:02;;;;;;;0.93;0.93;;;;;;;;;;5403300;26;20084;-84
2024/04/15 10:21:29;;;;;;;0.82;0.68;;;;;;;;;;5401089;26;20449;-84
2024/04/15 10:23:55;;;;;;;1.05;1.00;;;;;;;;;;5384487;26;20039;-83
2024/04/15 10:26:23;;;;;;;1.60;1.50;;;;;;;;;;5392111;26;19991;-87
2024/04/15 10:28:49;;;;;;;0.70;0.70;;;;;;;;;;5399195;26;20075;-85
2024/04/15 10:31:15;;;;;;;2.92;1.40;;;;;;;;;;5399481;26;20011;-83
2024/04/15 10:33:48;;;;;;;1.38;1.20;;;;;;;;;;5394971;26;20000;-84
2024/04/15 10:36:13;;;;;;;0.68;0.60;;;;;;;;;;5404550;26;20018;-84
2024/04/15 10:38:48;;;;;;;0.60;0.60;;;;;;;;;;5408798;26;20000;-83
2024/04/15 10:41:16;;;;;;;0.45;0.45;;;;;;;;;;5411552;26;20033;-84
2024/04/15 10:43:41;;;;;;;0.73;0.57;;;;;;;;;;5410133;26;20007;-84
2024/04/15 10:46:08;;;;;;;1.23;1.13;;;;;;;;;;5404612;26;20003;-83
2024/04/15 10:48:33;;;;;;;0.55;0.55;;;;;;;;;;5389808;26;21310;-83
2024/04/15 10:50:59;;;;;;;1.20;1.10;;;;;;;;;;5388364;26;20032;-83
2024/04/15 10:53:25;;;;;;;0.38;0.35;;;;;;;;;;5387825;26;20017;-82
2024/04/15 10:55:51;;;;;;;0.80;0.65;;;;;;;;;;5408873;26;20015;-82
2024/04/15 10:58:18;;;;;;;1.63;1.45;;;;;;;;;;5400707;26;20102;-83
2024/04/15 11:00:43;;;;;;;1.27;1.10;;;;;;;;;;5396057;26;20013;-81
2024/04/15 11:03:10;;;;;;;0.20;0.20;;;;;;;;;;5349149;26;20039;-83
2024/04/15 11:05:36;;;;;;;0.45;0.45;;;;;;;;;;5369084;26;20000;-82
2024/04/15 11:08:02;;;;;;;0.30;0.30;;;;;;;;;;5409501;26;20006;-81
2024/04/15 11:10:28;;;;;;;0.30;0.30;;;;;;;;;;5396211;26;20000;-83
2024/04/15 11:12:54;;;;;;;1.40;1.30;;;;;;;;;;5404379;26;20002;-83
2024/04/15 11:15:21;;;;;;;0.63;0.57;;;;;;;;;;5396815;26;20011;-83
2024/04/15 11:17:47;;;;;;;0.50;0.50;;;;;;;;;;5403369;26;20014;-84
2024/04/15 11:20:13;;;;;;;0.60;0.60;;;;;;;;;;5382460;26;20041;-82
2024/04/15 11:22:38;;;;;;;0.68;0.40;;;;;;;;;;5405863;26;20000;-82
2024/04/15 11:25:04;;;;;;;0.52;0.43;;;;;;;;;;5405731;26;20471;-82
2024/04/15 11:27:32;;;;;;;1.33;1.23;;;;;;;;;;5388623;26;20004;-84
2024/04/15 11:29:58;;;;;;;0.30;0.30;;;;;;;;;;5396244;26;20153;-84
2024/04/15 11:32:25;;;;;;;0.30;0.30;;;;;;;;;;5389059;26;20015;-85
2024/04/15 11:34:51;;;;;;;0.40;0.40;;;;;;;;;;5396428;26;20485;-82
2024/04/15 11:37:17;;;;;;;2.42;2.17;;;;;;;;;;5400479;26;19991;-83
2024/04/15 11:39:43;;;;;;;1.65;1.55;;;;;;;;;;5393531;26;19996;-85
2024/04/15 11:42:09;;;;;;;0.50;0.50;;;;;;;;;;5361180;26;20092;-84
2024/04/15 11:44:35;;;;;;;0.47;0.47;;;;;;;;;;5403005;26;20339;-81
2024/04/15 11:47:01;;;;;;;0.60;0.60;;;;;;;;;;5369408;26;20003;-86
2024/04/15 11:49:27;;;;;;;0.20;0.20;;;;;;;;;;5395559;26;20000;-85
2024/04/15 11:51:53;;;;;;;2.22;1.55;;;;;;;;;;5397200;26;20014;-84
2024/04/15 11:54:18;;;;;;;1.15;0.85;;;;;;;;;;5400268;26;20011;-88
2024/04/15 11:56:44;;;;;;;0.90;0.68;;;;;;;;;;5389047;26;20007;-88
2024/04/15 11:59:10;;;;;;;0.63;0.50;;;;;;;;;;5403273;26;20014;-86
2024/04/15 12:01:36;;;;;;;0.52;0.43;;;;;;;;;;5388202;26;20047;-86
2024/04/15 12:04:02;;;;;;;0.65;0.50;;;;;;;;;;5388836;26;20004;-87
2024/04/15 12:06:28;;;;;;;1.02;0.98;;;;;;;;;;5403623;26;19996;-85
2024/04/15 12:08:53;;;;;;;17.00;1.10;;;;;;;;;;5394227;26;20110;-85
2024/04/15 12:11:21;;;;;;;1.75;1.50;;;;;;;;;;5407311;26;20832;-81
2024/04/15 12:13:47;;;;;;;0.88;0.88;;;;;;;;;;5408790;26;20004;-86
2024/04/15 12:16:13;;;;;;;0.68;0.68;;;;;;;;;;5366107;26;20015;-79
2024/04/15 12:18:39;;;;;;;0.55;0.50;;;;;;;;;;5390736;26;20010;-81
2024/04/15 12:21:04;;;;;;;0.70;0.70;;;;;;;;;;5397330;26;20003;-81
2024/04/15 12:23:30;;;;;;;0.32;0.32;;;;;;;;;;5425642;26;20650;-78
2024/04/15 12:25:56;;;;;;;0.85;0.70;;;;;;;;;;5396546;26;20117;-78
2024/04/15 12:28:22;;;;;;;0.82;0.80;;;;;;;;;;5402447;26;20007;-78
2024/04/15 12:30:47;;;;;;;0.30;0.20;;;;;;;;;;5397679;26;19999;-78
2024/04/15 12:33:13;;;;;;;1.05;0.95;;;;;;;;;;5399252;26;19999;-78
2024/04/15 12:35:40;;;;;;;4.10;1.48;;;;;;;;;;5389818;26;19999;-83
2024/04/15 12:38:05;;;;;;;0.60;0.60;;;;;;;;;;5378156;26;19999;-80
2024/04/15 12:40:31;;;;;;;0.40;0.40;;;;;;;;;;5387726;26;20054;-79
2024/04/15 12:42:57;;;;;;;0.20;0.20;;;;;;;;;;5369729;26;20315;-80
2024/04/15 12:45:22;;;;;;;1.33;1.00;;;;;;;;;;5398954;26;19995;-81
2024/04/15 12:47:48;;;;;;;0.30;0.30;;;;;;;;;;5400103;26;20030;-79
2024/04/15 12:50:14;;;;;;;0.65;0.45;;;;;;;;;;5395425;26;20425;-80
2024/04/15 12:52:41;;;;;;;1.00;0.95;;;;;;;;;;5394110;26;19999;-80
2024/04/15 12:55:07;;;;;;;0.45;0.30;;;;;;;;;;5357972;26;20100;-81
2024/04/15 12:57:32;;;;;;;1.42;0.75;;;;;;;;;;5360480;26;20003;-78
2024/04/15 12:59:58;;;;;;;0.63;0.63;;;;;;;;;;5397877;26;20097;-80
2024/04/15 13:02:24;;;;;;;0.47;0.47;;;;;;;;;;5405442;26;20000;-80
2024/04/15 13:04:49;;;;;;;0.30;0.30;;;;;;;;;;5369540;26;20733;-80
2024/04/15 13:07:15;;;;;;;0.40;0.40;;;;;;;;;;5399931;26;20010;-80
2024/04/15 13:09:41;;;;;;;0.80;0.50;;;;;;;;;;5388847;26;20447;-81
2024/04/15 13:12:10;;;;;;;0.95;0.95;;;;;;;;;;5400371;26;20042;-79
2024/04/15 13:14:36;;;;;;;0.70;0.63;;;;;;;;;;5393784;26;20020;-82
2024/04/15 13:17:01;;;;;;;0.52;0.32;;;;;;;;;;5398983;26;20007;-82
2024/04/15 13:19:27;;;;;;;0.40;0.30;;;;;;;;;;5400898;26;20007;-81
2024/04/15 13:21:53;;;;;;;11.70;2.17;;;;;;;;;;5399891;26;20789;-79
2024/04/15 13:24:19;;;;;;;0.20;0.20;;;;;;;;;;5395800;26;20449;-82
2024/04/15 13:26:45;;;;;;;0.35;0.35;;;;;;;;;;5388263;26;20008;-80
2024/04/15 13:29:10;;;;;;;0.43;0.25;;;;;;;;;;5395015;26;20075;-80
2024/04/15 13:31:36;;;;;;;1.85;1.00;;;;;;;;;;5399823;26;20019;-81
2024/04/15 13:34:03;;;;;;;0.20;0.20;;;;;;;;;;5389845;26;20015;-81
2024/04/15 13:36:29;;;;;;;0.93;0.82;;;;;;;;;;5389015;26;20006;-84
2024/04/15 13:38:55;;;;;;;0.20;0.20;;;;;;;;;;5392635;26;20000;-75
2024/04/15 13:41:20;;;;;;;1.05;0.98;;;;;;;;;;5384585;26;20031;-75
2024/04/15 13:43:46;;;;;;;1.13;1.05;;;;;;;;;;5385413;26;20007;-75
2024/04/15 13:46:13;;;;;;;2.63;1.05;;;;;;;;;;5388641;26;20023;-75
2024/04/15 13:48:39;;;;;;;0.50;0.50;;;;;;;;;;5384906;26;20636;-69
2024/04/15 13:51:05;;;;;;;4.15;2.38;;;;;;;;;;5401195;26;20412;-70
2024/04/15 13:53:31;;;;;;;1.80;0.90;;;;;;;;;;5398510;26;20000;-69
2024/04/15 13:55:57;;;;;;;0.68;0.57;;;;;;;;;;5403571;26;20011;-66
2024/04/15 13:58:23;;;;;;;0.45;0.45;;;;;;;;;;5393315;26;20403;-66
2024/04/15 14:00:53;;;;;;;24.95;3.53;;;;;;;;;;5369428;26;20008;-67
2024/04/15 14:03:19;;;;;;;0.95;0.95;;;;;;;;;;5390138;26;20008;-66
2024/04/15 14:05:45;;;;;;;0.88;0.80;;;;;;;;;;5383768;26;20503;-66
2024/04/15 14:08:11;;;;;;;1.77;1.00;;;;;;;;;;5391345;26;20431;-67
2024/04/15 14:10:37;;;;;;;0.98;0.88;;;;;;;;;;5372855;26;19999;-68
2024/04/15 14:13:02;;;;;;;0.82;0.80;;;;;;;;;;5381428;26;20010;-68
2024/04/15 14:15:28;;;;;;;0.30;0.30;;;;;;;;;;5392774;26;19996;-67
2024/04/15 14:17:55;;;;;;;0.20;0.20;;;;;;;;;;5390199;26;20031;-67
2024/04/15 14:20:22;;;;;;;1.20;0.40;;;;;;;;;;5403162;26;19991;-66
2024/04/15 14:22:49;;;;;;;3.15;0.30;;;;;;;;;;5405235;26;20039;-66
2024/04/15 14:25:15;;;;;;;4.90;1.65;;;;;;;;;;5356595;26;20332;-67
2024/04/15 14:27:41;;;;;;;0.88;0.85;;;;;;;;;;5393004;26;20471;-67
2024/04/15 14:30:08;;;;;;;0.65;0.65;;;;;;;;;;5401077;26;20010;-68
2024/04/15 14:32:34;;;;;;;2.05;1.88;;;;;;;;;;5388394;26;20566;-67
2024/04/15 14:35:00;;;;;;;1.00;0.40;;;;;;;;;;5385866;26;20001;-68
2024/04/15 14:37:26;;;;;;;0.20;0.20;;;;;;;;;;5394470;26;20008;-66